createdAt,value
2022-12-20T00:01:21.865Z,74.50
2022-12-20T00:03:54.803Z,70.73
2022-12-20T00:06:38.846Z,51.63
2022-12-20T00:09:09.061Z,63.50
2022-12-20T00:11:41.532Z,72.80
2022-12-20T00:14:10.166Z,68.00
2022-12-20T00:16:39.737Z,71.83
2022-12-20T00:19:07.571Z,68.10
2022-12-20T00:21:50.112Z,66.33
2022-12-20T00:24:25.867Z,65.40
2022-12-20T00:27:04.112Z,63.67
2022-12-20T00:29:31.450Z,66.60
2022-12-20T00:32:03.694Z,69.70
2022-12-20T00:34:31.988Z,65.07
2022-12-20T00:37:16.637Z,66.43
2022-12-20T00:39:44.952Z,64.83
2022-12-20T00:42:16.072Z,64.67
2022-12-20T00:44:46.372Z,65.00
2022-12-20T00:47:15.815Z,66.57
2022-12-20T00:49:44.072Z,68.27
2022-12-20T00:52:33.234Z,62.90
2022-12-20T00:55:04.937Z,65.57
2022-12-20T00:57:33.303Z,60.53
2022-12-20T01:00:07.906Z,60.37
2022-12-20T01:02:36.495Z,56.07
2022-12-20T01:05:18.345Z,68.73
2022-12-20T01:07:46.715Z,61.43
2022-12-20T01:10:15.292Z,63.37
2022-12-20T01:12:46.881Z,55.50
2022-12-20T01:15:15.914Z,65.53
2022-12-20T01:17:44.021Z,63.03
2022-12-20T01:20:44.011Z,60.27
2022-12-20T01:23:11.514Z,56.63
2022-12-20T01:25:38.808Z,58.83
2022-12-20T01:28:06.455Z,60.77
2022-12-20T01:30:33.615Z,62.67
2022-12-20T01:33:13.205Z,53.77
2022-12-20T01:35:40.858Z,57.60
2022-12-20T01:38:08.108Z,61.23
2022-12-20T01:40:39.958Z,62.00
2022-12-20T01:43:12.824Z,52.17
2022-12-20T01:45:45.717Z,55.50
2022-12-20T01:48:22.628Z,55.13
2022-12-20T01:51:09.702Z,56.67
2022-12-20T01:53:41.215Z,60.23
2022-12-20T01:56:23.292Z,56.00
2022-12-20T01:58:55.214Z,63.27
2022-12-20T02:01:25.971Z,56.10
2022-12-20T02:03:56.925Z,57.77
2022-12-20T02:06:28.319Z,54.60
2022-12-20T02:09:02.770Z,54.20
2022-12-20T02:11:56.135Z,55.63
2022-12-20T02:14:44.116Z,61.47
2022-12-20T02:17:39.124Z,60.23
2022-12-20T02:20:44.935Z,64.50
2022-12-20T02:23:48.957Z,59.47
2022-12-20T02:26:49.372Z,59.90
2022-12-20T02:29:40.726Z,61.27
2022-12-20T02:32:37.755Z,67.40
2022-12-20T02:35:10.173Z,62.37
2022-12-20T02:37:46.594Z,68.43
2022-12-20T02:40:21.465Z,63.03
2022-12-20T02:42:54.312Z,61.73
2022-12-20T02:45:29.913Z,59.10
2022-12-20T02:48:29.329Z,63.20
2022-12-20T02:50:59.415Z,58.03
2022-12-20T02:53:29.863Z,62.63
2022-12-20T02:56:15.025Z,59.50
2022-12-20T02:59:01.657Z,65.67
2022-12-20T03:01:46.000Z,65.77
2022-12-20T03:04:21.624Z,58.33
2022-12-20T03:07:09.022Z,55.90
2022-12-20T03:09:50.712Z,66.07
2022-12-20T03:12:19.126Z,66.57
2022-12-20T03:15:05.437Z,58.03
2022-12-20T03:17:33.938Z,59.17
2022-12-20T03:20:02.289Z,59.87
2022-12-20T03:22:35.533Z,63.07
2022-12-20T03:25:03.004Z,62.03
2022-12-20T03:27:32.102Z,64.23
2022-12-20T03:30:05.480Z,62.10
2022-12-20T03:32:36.575Z,57.20
2022-12-20T03:35:06.758Z,63.57
2022-12-20T03:37:41.083Z,66.77
2022-12-20T03:40:12.127Z,66.40
2022-12-20T03:42:40.182Z,65.07
2022-12-20T03:45:09.855Z,67.90
2022-12-20T03:47:37.714Z,67.13
2022-12-20T03:50:27.960Z,76.47
2022-12-20T03:52:58.831Z,63.57
2022-12-20T03:55:45.167Z,64.90
2022-12-20T03:58:13.713Z,67.37
2022-12-20T04:00:41.373Z,67.33
2022-12-20T04:03:33.111Z,69.33
2022-12-20T04:06:04.016Z,60.60
2022-12-20T04:08:34.669Z,61.57
2022-12-20T04:11:18.032Z,70.03
2022-12-20T04:13:55.262Z,62.47
2022-12-20T04:16:31.449Z,64.23
2022-12-20T04:19:00.133Z,61.43
2022-12-20T04:21:34.901Z,66.60
2022-12-20T04:24:19.355Z,70.03
2022-12-20T04:26:55.974Z,64.80
2022-12-20T04:29:28.917Z,66.97
2022-12-20T04:32:00.723Z,64.70
2022-12-20T04:34:30.958Z,63.83
2022-12-20T04:36:59.852Z,67.80
2022-12-20T04:39:38.656Z,70.67
2022-12-20T04:42:23.241Z,68.60
2022-12-20T04:44:57.932Z,66.93
2022-12-20T04:47:29.702Z,74.93
2022-12-20T04:49:59.670Z,71.27
2022-12-20T04:52:47.873Z,70.97
2022-12-20T04:55:18.926Z,67.80
2022-12-20T04:58:21.233Z,66.60
2022-12-20T05:00:52.562Z,59.80
2022-12-20T05:03:27.324Z,69.43
2022-12-20T05:05:59.243Z,65.27
2022-12-20T05:08:27.099Z,69.77
2022-12-20T05:11:04.932Z,62.90
2022-12-20T05:13:33.911Z,68.10
2022-12-20T05:16:02.176Z,62.87
2022-12-20T05:18:33.792Z,72.80
2022-12-20T05:21:23.893Z,67.00
2022-12-20T05:24:12.784Z,73.67
2022-12-20T05:27:01.406Z,77.00
2022-12-20T05:29:32.507Z,68.67
2022-12-20T05:32:00.945Z,68.83
2022-12-20T05:34:28.408Z,70.23
2022-12-20T05:36:57.532Z,76.93
2022-12-20T05:39:36.068Z,70.07
2022-12-20T05:42:08.476Z,73.37
2022-12-20T05:44:53.785Z,70.47
2022-12-20T05:47:25.222Z,70.07
2022-12-20T05:50:02.978Z,68.17
2022-12-20T05:52:38.091Z,68.70
2022-12-20T05:55:07.093Z,70.37
2022-12-20T05:57:44.083Z,70.03
2022-12-20T06:00:15.076Z,75.37
2022-12-20T06:02:45.080Z,73.20
2022-12-20T06:05:14.668Z,71.50
2022-12-20T06:07:46.834Z,71.60
2022-12-20T06:10:16.978Z,74.33
2022-12-20T06:12:57.143Z,72.60
2022-12-20T06:15:32.124Z,73.93
2022-12-20T06:18:03.947Z,76.07
2022-12-20T06:20:31.425Z,77.50
2022-12-20T06:23:02.633Z,72.90
2022-12-20T06:25:38.224Z,77.97
2022-12-20T06:28:05.998Z,72.43
2022-12-20T06:30:37.336Z,71.93
2022-12-20T06:33:14.486Z,68.10
2022-12-20T06:35:49.949Z,70.67
2022-12-20T06:38:18.976Z,71.23
2022-12-20T06:41:01.240Z,69.10
2022-12-20T06:43:32.833Z,72.37
2022-12-20T06:46:00.397Z,71.50
2022-12-20T06:48:27.924Z,74.37
2022-12-20T06:50:57.316Z,81.10
2022-12-20T06:53:29.869Z,72.40
2022-12-20T06:55:57.168Z,71.63
2022-12-20T06:58:24.907Z,75.30
2022-12-20T07:00:52.278Z,66.43
2022-12-20T07:03:19.643Z,68.60
2022-12-20T07:05:53.531Z,66.80
2022-12-20T07:08:35.016Z,75.37
2022-12-20T07:11:07.819Z,67.20
2022-12-20T07:13:36.982Z,70.27
2022-12-20T07:16:06.045Z,63.83
2022-12-20T07:18:35.975Z,64.20
2022-12-20T07:21:05.458Z,70.07
2022-12-20T07:23:34.700Z,73.87
2022-12-20T07:26:04.139Z,73.33
2022-12-20T07:28:46.724Z,69.77
2022-12-20T07:31:14.260Z,73.17
2022-12-20T07:33:50.922Z,74.50
2022-12-20T07:36:18.456Z,77.07
2022-12-20T07:38:45.956Z,68.30
2022-12-20T07:41:19.454Z,68.70
2022-12-20T07:43:48.904Z,73.17
2022-12-20T07:46:18.307Z,83.50
2022-12-20T07:48:46.633Z,76.60
2022-12-20T07:51:35.176Z,73.70
2022-12-20T07:54:09.660Z,81.00
2022-12-20T07:56:41.881Z,74.57
2022-12-20T07:59:14.007Z,79.13
2022-12-20T08:01:43.135Z,77.57
2022-12-20T08:04:16.952Z,83.67
2022-12-20T08:06:51.761Z,82.43
2022-12-20T08:09:21.153Z,73.97
2022-12-20T08:11:49.112Z,72.77
2022-12-20T08:14:18.749Z,70.43
2022-12-20T08:17:12.983Z,77.37
2022-12-20T08:19:43.804Z,81.13
2022-12-20T08:22:13.150Z,74.87
2022-12-20T08:24:41.349Z,85.83
2022-12-20T08:27:10.564Z,82.67
2022-12-20T08:29:54.030Z,78.13
2022-12-20T08:32:21.319Z,77.60
2022-12-20T08:35:05.251Z,78.77
2022-12-20T08:37:33.901Z,88.43
2022-12-20T08:40:07.793Z,80.80
2022-12-20T08:42:36.068Z,82.87
2022-12-20T08:45:04.524Z,80.20
2022-12-20T08:47:35.900Z,80.90
2022-12-20T08:50:19.567Z,81.87
2022-12-20T08:52:47.808Z,87.10
2022-12-20T08:55:29.476Z,91.67
2022-12-20T08:57:57.050Z,93.13
2022-12-20T09:00:25.244Z,75.40
2022-12-20T09:02:55.080Z,82.87
2022-12-20T09:05:31.683Z,86.37
2022-12-20T09:08:00.134Z,86.60
2022-12-20T09:10:27.315Z,81.23
2022-12-20T09:12:55.585Z,87.57
2022-12-20T09:15:26.680Z,157.60
2022-12-20T09:17:55.623Z,94.27
2022-12-20T09:20:22.649Z,144.27
2022-12-20T09:22:50.017Z,157.80
2022-12-20T09:25:17.289Z,95.57
2022-12-20T09:28:14.435Z,92.80
2022-12-20T09:30:43.695Z,100.13
2022-12-20T09:33:14.872Z,85.70
2022-12-20T09:35:46.590Z,82.60
2022-12-20T09:38:39.795Z,92.53
2022-12-20T09:41:38.310Z,79.13
2022-12-20T09:44:14.382Z,88.17
2022-12-20T09:47:15.848Z,88.00
2022-12-20T09:49:49.837Z,78.53
2022-12-20T09:52:56.877Z,81.87
2022-12-20T09:55:47.264Z,73.47
2022-12-20T09:58:47.501Z,80.47
2022-12-20T10:01:24.385Z,74.77
2022-12-20T10:04:12.284Z,111.83
2022-12-20T10:06:42.767Z,85.43
2022-12-20T10:09:37.407Z,96.03
2022-12-20T10:12:30.364Z,87.70
2022-12-20T10:15:05.103Z,86.57
2022-12-20T10:17:54.367Z,82.77
2022-12-20T10:20:45.229Z,84.47
2022-12-20T10:23:30.963Z,80.67
2022-12-20T10:26:01.401Z,76.50
2022-12-20T10:28:35.356Z,79.37
2022-12-20T10:31:08.547Z,80.93
2022-12-20T10:33:36.752Z,73.07
2022-12-20T10:36:28.609Z,84.30
2022-12-20T10:39:08.146Z,98.60
2022-12-20T10:41:41.814Z,74.67
2022-12-20T10:44:26.341Z,80.33
2022-12-20T10:47:03.907Z,85.30
2022-12-20T10:49:43.169Z,78.03
2022-12-20T10:52:14.334Z,79.90
2022-12-20T10:54:44.674Z,86.77
2022-12-20T10:57:28.144Z,78.53
2022-12-20T11:00:05.628Z,76.20
2022-12-20T11:02:43.133Z,73.03
2022-12-20T11:05:11.450Z,93.70
2022-12-20T11:08:34.778Z,73.97
2022-12-20T11:11:20.274Z,79.67
2022-12-20T11:14:15.665Z,73.03
2022-12-20T11:16:48.273Z,76.17
2022-12-20T11:19:55.808Z,77.93
2022-12-20T11:22:26.120Z,85.20
2022-12-20T11:25:30.945Z,91.23
2022-12-20T11:28:19.630Z,86.57
2022-12-20T11:31:00.440Z,74.03
2022-12-20T11:34:07.133Z,74.90
2022-12-20T11:36:52.068Z,80.30
2022-12-20T11:39:32.274Z,92.03
2022-12-20T11:42:37.917Z,75.40
2022-12-20T11:45:21.130Z,119.30
2022-12-20T11:48:21.104Z,71.20
2022-12-20T11:51:04.764Z,80.60
2022-12-20T11:53:49.393Z,68.53
2022-12-20T11:56:31.424Z,79.30
2022-12-20T11:59:29.137Z,77.67
2022-12-20T12:02:13.796Z,75.53
2022-12-20T12:05:07.844Z,64.53
2022-12-20T12:07:39.574Z,72.23
2022-12-20T12:10:19.870Z,78.73
2022-12-20T12:13:03.689Z,69.20
2022-12-20T12:16:03.814Z,73.93
2022-12-20T12:18:33.845Z,65.60
2022-12-20T12:21:26.032Z,81.53
2022-12-20T12:24:08.258Z,73.87
2022-12-20T12:26:41.511Z,79.07
2022-12-20T12:29:09.656Z,81.63
2022-12-20T12:31:56.329Z,77.40
2022-12-20T12:34:36.880Z,73.63
2022-12-20T12:37:15.729Z,97.07
2022-12-20T12:39:47.951Z,83.23
2022-12-20T12:42:53.625Z,95.70
2022-12-20T12:45:30.051Z,80.70
2022-12-20T12:48:03.455Z,82.33
2022-12-20T12:50:39.130Z,81.50
2022-12-20T12:53:22.561Z,72.60
2022-12-20T12:56:07.469Z,76.23
2022-12-20T12:58:48.369Z,81.47
2022-12-20T13:01:50.066Z,97.37
2022-12-20T13:04:21.333Z,77.30
2022-12-20T13:06:49.598Z,79.97
2022-12-20T13:09:38.891Z,81.83
2022-12-20T13:12:36.786Z,68.10
2022-12-20T13:15:25.820Z,79.73
2022-12-20T13:18:12.057Z,73.97
2022-12-20T13:20:40.049Z,77.03
2022-12-20T13:23:12.993Z,71.83
2022-12-20T13:25:41.428Z,84.47
2022-12-20T13:28:25.107Z,67.63
2022-12-20T13:31:02.663Z,74.67
2022-12-20T13:33:47.259Z,75.93
2022-12-20T13:36:35.862Z,71.33
2022-12-20T13:39:21.873Z,70.53
2022-12-20T13:42:33.191Z,71.73
2022-12-20T13:45:05.428Z,74.10
2022-12-20T13:47:58.444Z,77.47
2022-12-20T13:50:35.732Z,79.13
2022-12-20T13:53:05.009Z,83.33
2022-12-20T13:55:40.377Z,70.73
2022-12-20T13:58:21.792Z,76.17
2022-12-20T14:00:50.344Z,70.03
2022-12-20T14:03:42.872Z,83.07
2022-12-20T14:06:14.718Z,85.13
2022-12-20T14:09:19.920Z,82.50
2022-12-20T14:11:47.855Z,66.90
2022-12-20T14:14:17.045Z,82.77
2022-12-20T14:16:44.507Z,81.33
2022-12-20T14:19:16.107Z,86.80
2022-12-20T14:21:45.945Z,80.37
2022-12-20T14:24:18.189Z,79.70
2022-12-20T14:26:51.906Z,82.13
2022-12-20T14:29:30.480Z,72.23
2022-12-20T14:31:58.791Z,78.27
2022-12-20T14:34:52.878Z,73.20
2022-12-20T14:37:40.169Z,76.83
2022-12-20T14:40:10.574Z,77.20
2022-12-20T14:42:43.241Z,66.80
2022-12-20T14:45:16.720Z,78.43
2022-12-20T14:48:05.873Z,74.70
2022-12-20T14:50:41.077Z,72.73
2022-12-20T14:53:30.750Z,73.00
2022-12-20T14:56:02.455Z,59.20
2022-12-20T14:58:36.030Z,73.93
2022-12-20T15:01:21.430Z,70.40
2022-12-20T15:03:59.765Z,76.13
2022-12-20T15:06:45.941Z,72.90
2022-12-20T15:09:17.271Z,80.17
2022-12-20T15:11:47.701Z,73.00
2022-12-20T15:14:35.303Z,67.33
2022-12-20T15:17:09.398Z,91.13
2022-12-20T15:19:42.011Z,80.00
2022-12-20T15:22:17.537Z,72.67
2022-12-20T15:24:55.798Z,78.63
2022-12-20T15:27:24.804Z,72.93
2022-12-20T15:29:53.218Z,69.37
2022-12-20T15:32:30.079Z,88.37
2022-12-20T15:35:04.957Z,76.00
2022-12-20T15:37:33.257Z,71.50
2022-12-20T15:40:02.725Z,66.47
2022-12-20T15:42:32.183Z,64.97
2022-12-20T15:45:37.195Z,61.17
2022-12-20T15:48:04.665Z,62.83
2022-12-20T15:50:56.280Z,70.40
2022-12-20T15:53:32.713Z,62.43
2022-12-20T15:56:04.303Z,65.80
2022-12-20T15:58:31.542Z,64.67
2022-12-20T16:01:03.774Z,63.03
2022-12-20T16:03:32.953Z,69.27
2022-12-20T16:06:00.496Z,67.20
2022-12-20T16:08:28.402Z,77.30
2022-12-20T16:10:55.620Z,74.77
2022-12-20T16:13:25.389Z,74.63
2022-12-20T16:15:54.051Z,78.20
2022-12-20T16:18:34.640Z,82.30
2022-12-20T16:21:03.170Z,74.17
2022-12-20T16:23:46.972Z,77.60
2022-12-20T16:26:25.061Z,76.60
2022-12-20T16:28:54.591Z,77.80
2022-12-20T16:31:26.760Z,81.13
2022-12-20T16:34:03.242Z,82.30
2022-12-20T16:36:32.178Z,73.70
2022-12-20T16:38:59.863Z,70.20
2022-12-20T16:41:30.416Z,66.17
2022-12-20T16:44:00.849Z,80.27
2022-12-20T16:46:30.413Z,86.83
2022-12-20T16:49:01.024Z,78.60
2022-12-20T16:51:39.811Z,76.57
2022-12-20T16:54:21.037Z,76.30
2022-12-20T16:56:56.993Z,76.50
2022-12-20T16:59:26.007Z,79.47
2022-12-20T17:01:57.196Z,80.23
2022-12-20T17:04:32.524Z,80.87
2022-12-20T17:06:59.971Z,80.20
2022-12-20T17:09:31.289Z,72.57
2022-12-20T17:12:05.936Z,84.50
2022-12-20T17:14:34.284Z,77.20
2022-12-20T17:17:01.404Z,72.67
2022-12-20T17:19:40.240Z,81.80
2022-12-20T17:24:57.582Z,76.97
2022-12-20T17:27:36.013Z,69.77
2022-12-20T17:30:03.419Z,69.40
2022-12-20T17:32:32.627Z,69.83
2022-12-20T17:34:59.970Z,74.60
2022-12-20T17:37:37.959Z,81.87
2022-12-20T17:40:06.443Z,66.53
2022-12-20T17:42:34.556Z,77.73
2022-12-20T17:45:20.299Z,71.77
2022-12-20T17:47:47.719Z,66.40
2022-12-20T17:50:18.179Z,66.27
2022-12-20T17:52:51.913Z,69.47
2022-12-20T17:55:27.426Z,60.67
2022-12-20T17:57:56.860Z,69.27
2022-12-20T18:00:38.475Z,66.30
2022-12-20T18:03:24.600Z,67.03
2022-12-20T18:06:05.921Z,63.37
2022-12-20T18:08:34.927Z,64.33
2022-12-20T18:11:02.094Z,62.40
2022-12-20T18:13:31.137Z,64.73
2022-12-20T18:16:19.403Z,60.47
2022-12-20T18:18:47.852Z,62.63
2022-12-20T18:21:19.861Z,63.37
2022-12-20T18:23:49.323Z,62.87
2022-12-20T18:26:22.826Z,68.53
2022-12-20T18:29:02.326Z,62.20
2022-12-20T18:31:32.956Z,62.90
2022-12-20T18:34:02.627Z,68.43
2022-12-20T18:36:36.690Z,54.63
2022-12-20T18:39:08.464Z,61.87
2022-12-20T18:41:35.871Z,60.17
2022-12-20T18:44:08.022Z,61.77
2022-12-20T18:46:36.988Z,64.20
2022-12-20T18:49:04.489Z,57.03
2022-12-20T18:51:41.077Z,62.90
2022-12-20T18:54:14.784Z,62.43
2022-12-20T18:56:43.129Z,60.57
2022-12-20T18:59:12.312Z,62.97
2022-12-20T19:01:52.898Z,61.73
2022-12-20T19:04:24.791Z,62.97
2022-12-20T19:06:53.848Z,65.13
2022-12-20T19:09:26.429Z,61.00
2022-12-20T19:11:57.714Z,59.87
2022-12-20T19:14:28.758Z,58.67
2022-12-20T19:16:56.465Z,60.03
2022-12-20T19:19:43.421Z,58.63
2022-12-20T19:22:10.928Z,63.70
2022-12-20T19:24:39.397Z,55.67
2022-12-20T19:27:09.515Z,52.77
2022-12-20T19:29:36.800Z,55.67
2022-12-20T19:32:14.093Z,60.37
2022-12-20T19:34:45.226Z,62.73
2022-12-20T19:37:14.466Z,59.77
2022-12-20T19:39:41.723Z,64.30
2022-12-20T19:42:26.835Z,54.03
2022-12-20T19:45:03.567Z,53.87
2022-12-20T19:47:33.827Z,56.53
2022-12-20T19:50:01.700Z,59.40
2022-12-20T19:52:29.907Z,56.30
2022-12-20T19:54:59.232Z,51.10
2022-12-20T19:57:26.853Z,53.60
2022-12-20T19:59:59.636Z,53.73
2022-12-20T20:02:27.050Z,49.70
2022-12-20T20:04:54.380Z,53.27
2022-12-20T20:07:23.807Z,49.17
2022-12-20T20:09:51.046Z,48.57
2022-12-20T20:12:22.217Z,48.10
2022-12-20T20:14:52.547Z,54.30
2022-12-20T20:17:32.093Z,47.47
2022-12-20T20:19:59.375Z,47.50
2022-12-20T20:22:27.639Z,51.77
2022-12-20T20:24:57.075Z,46.07
2022-12-20T20:27:26.465Z,45.43
2022-12-20T20:29:58.903Z,43.47
2022-12-20T20:32:26.179Z,45.80
2022-12-20T20:34:55.868Z,44.83
2022-12-20T20:37:23.156Z,41.63
2022-12-20T20:39:50.361Z,43.13
2022-12-20T20:42:29.343Z,39.40
2022-12-20T20:45:00.249Z,38.80
2022-12-20T20:47:46.905Z,42.67
2022-12-20T20:50:16.853Z,39.83
2022-12-20T20:52:49.551Z,37.47
2022-12-20T20:55:17.132Z,42.63
2022-12-20T20:57:58.557Z,37.00
2022-12-20T21:00:26.147Z,41.73
2022-12-20T21:02:53.621Z,42.07
2022-12-20T21:08:10.886Z,40.20
2022-12-20T21:10:39.180Z,39.67
2022-12-20T21:13:06.474Z,41.23
2022-12-20T21:15:35.489Z,37.87
2022-12-20T21:18:07.808Z,40.50
2022-12-20T21:20:36.976Z,37.23
2022-12-20T21:23:05.328Z,43.03
2022-12-20T21:25:33.079Z,38.67
2022-12-20T21:28:02.327Z,41.53
2022-12-20T21:30:42.706Z,39.93
2022-12-20T21:33:11.485Z,38.30
2022-12-20T21:35:38.608Z,40.63
2022-12-20T21:38:06.818Z,35.63
2022-12-20T21:40:41.155Z,40.80
2022-12-20T21:43:09.437Z,37.73
2022-12-20T21:45:36.624Z,37.63
2022-12-20T21:48:10.102Z,39.70
2022-12-20T21:50:38.347Z,41.53
2022-12-20T21:53:05.578Z,35.87
2022-12-20T21:55:54.182Z,43.17
2022-12-20T21:58:22.376Z,42.10
2022-12-20T22:00:56.985Z,41.07
2022-12-20T22:03:27.056Z,43.33
2022-12-20T22:05:57.120Z,41.17
2022-12-20T22:08:36.951Z,44.83
2022-12-20T22:11:06.790Z,43.87
2022-12-20T22:13:41.910Z,38.97
2022-12-20T22:16:10.713Z,42.17
2022-12-20T22:18:40.673Z,38.77
2022-12-20T22:21:14.189Z,41.27
2022-12-20T22:23:42.114Z,40.83
2022-12-20T22:26:16.208Z,43.67
2022-12-20T22:29:04.173Z,42.87
2022-12-20T22:31:34.370Z,41.20
2022-12-20T22:34:02.257Z,43.60
2022-12-20T22:36:30.732Z,39.73
2022-12-20T22:39:14.404Z,43.17
2022-12-20T22:42:00.660Z,34.07
2022-12-20T22:44:29.466Z,45.43
2022-12-20T22:47:10.992Z,39.73
2022-12-20T22:49:38.313Z,41.37
2022-12-20T22:52:07.842Z,40.97
2022-12-20T22:54:35.698Z,37.57
2022-12-20T22:57:04.928Z,37.90
2022-12-20T22:59:33.487Z,37.33
2022-12-20T23:02:03.062Z,39.53
2022-12-20T23:04:43.032Z,41.00
2022-12-20T23:07:10.281Z,38.83
2022-12-20T23:09:37.431Z,38.73
2022-12-20T23:12:24.400Z,40.00
2022-12-20T23:15:06.637Z,35.03
2022-12-20T23:17:34.799Z,37.77
2022-12-20T23:20:22.820Z,40.50
2022-12-20T23:22:51.131Z,40.83
2022-12-20T23:25:19.931Z,42.73
2022-12-20T23:27:51.644Z,40.20
2022-12-20T23:30:22.247Z,41.10
2022-12-20T23:32:53.795Z,41.43
2022-12-20T23:35:21.863Z,38.70
2022-12-20T23:37:50.080Z,41.20
2022-12-20T23:40:23.862Z,44.13
2022-12-20T23:42:54.837Z,37.17
2022-12-20T23:45:23.148Z,38.97
2022-12-20T23:47:50.494Z,40.43
2022-12-20T23:50:19.219Z,41.77
2022-12-20T23:52:49.557Z,37.37
2022-12-20T23:55:16.826Z,34.33
2022-12-20T23:57:44.026Z,41.07
